Zarajsk, Russia
Current Conditions -  °F | °C
As of 7:30 PM on Saturday 22 Nov 2014 (Local Time) from UUDD Reporting Station
Clear Clear  
Wind Chill: 21°   Ceiling: Unl
Heat Index: 28°   Visibility: 6mi
Dew Point: 18°   Wind: 7mph
Humidity: 64%   Direction: 240°WSW
Pressure: 30.39"   Gusts: NA
Location:  54.77°N, 38.88°E
Report Text: UUDD 221630Z 24003MPS 210V300 CAVOK M02/M08 Q1029 32190095NOSIG
Loading
Personal Weather Stations






























Interactive Weather Map New forecast layout! Learn more

10-Day Weather Forecast

Advertisements
Track Severe Weather on mobile